createdAt,value
2022-09-04T00:01:15.100Z,9.90
2022-09-04T00:03:51.540Z,7.68
2022-09-04T00:06:24.929Z,5.65
2022-09-04T00:09:04.480Z,4.05
2022-09-04T00:11:47.637Z,5.75
2022-09-04T00:14:21.469Z,4.53
2022-09-04T00:17:00.926Z,5.65
2022-09-04T00:19:35.476Z,5.85
2022-09-04T00:22:24.983Z,6.10
2022-09-04T00:25:03.748Z,4.82
2022-09-04T00:27:43.465Z,8.02
2022-09-04T00:30:19.810Z,9.45
2022-09-04T00:32:55.823Z,6.30
2022-09-04T00:35:30.750Z,7.30
2022-09-04T00:38:04.984Z,6.82
2022-09-04T00:40:35.789Z,4.55
2022-09-04T00:43:25.858Z,5.03
2022-09-04T00:46:14.078Z,4.53
2022-09-04T00:49:06.720Z,4.78
2022-09-04T00:51:43.756Z,6.85
2022-09-04T00:54:26.546Z,5.43
2022-09-04T00:57:45.160Z,4.82
2022-09-04T01:00:16.420Z,6.70
2022-09-04T01:03:04.412Z,5.00
2022-09-04T01:05:45.948Z,4.40
2022-09-04T01:08:26.151Z,3.92
2022-09-04T01:11:08.285Z,4.38
2022-09-04T01:13:42.320Z,3.78
2022-09-04T01:16:16.814Z,3.50
2022-09-04T01:18:56.373Z,4.00
2022-09-04T01:21:51.319Z,3.30
2022-09-04T01:24:33.965Z,3.67
2022-09-04T01:27:09.610Z,3.10
2022-09-04T01:29:50.327Z,2.85
2022-09-04T01:32:33.872Z,2.92
2022-09-04T01:35:08.968Z,2.90
2022-09-04T01:38:03.646Z,2.75
2022-09-04T01:40:40.216Z,3.20
2022-09-04T01:43:12.872Z,4.60
2022-09-04T01:46:01.005Z,3.00
2022-09-04T01:48:39.400Z,3.20
2022-09-04T01:51:19.897Z,3.33
2022-09-04T01:53:57.725Z,3.03
2022-09-04T01:56:34.438Z,4.88
2022-09-04T01:59:09.841Z,3.70
2022-09-04T02:01:45.785Z,3.95
2022-09-04T02:04:21.781Z,4.50
2022-09-04T02:07:01.949Z,5.60
2022-09-04T02:09:37.289Z,3.83
2022-09-04T02:12:19.131Z,2.80
2022-09-04T02:14:59.504Z,3.78
2022-09-04T02:17:37.253Z,4.30
2022-09-04T02:20:17.616Z,3.90
2022-09-04T02:22:53.180Z,3.78
2022-09-04T02:25:28.938Z,5.60
2022-09-04T02:28:10.571Z,4.20
2022-09-04T02:30:54.351Z,3.78
2022-09-04T02:33:32.181Z,3.40
2022-09-04T02:36:07.051Z,3.70
2022-09-04T02:38:45.688Z,3.63
2022-09-04T02:41:24.098Z,3.28
2022-09-04T02:44:03.329Z,3.38
2022-09-04T02:46:43.283Z,3.50
2022-09-04T02:49:20.609Z,3.30
2022-09-04T02:52:02.020Z,4.88
2022-09-04T02:54:49.669Z,5.03
2022-09-04T02:57:30.202Z,4.55
2022-09-04T03:00:07.408Z,3.70
2022-09-04T03:02:42.703Z,3.90
2022-09-04T03:05:20.288Z,3.85
2022-09-04T03:07:59.246Z,4.40
2022-09-04T03:10:32.885Z,4.28
2022-09-04T03:13:08.227Z,3.08
2022-09-04T03:15:41.804Z,3.17
2022-09-04T03:18:20.904Z,2.60
2022-09-04T03:20:55.589Z,4.18
2022-09-04T03:23:33.945Z,2.88
2022-09-04T03:26:20.641Z,3.17
2022-09-04T03:29:10.649Z,2.72
2022-09-04T03:31:48.542Z,2.97
2022-09-04T03:34:29.067Z,3.35
2022-09-04T03:37:14.364Z,3.33
2022-09-04T03:39:55.239Z,3.35
2022-09-04T03:42:35.234Z,4.13
2022-09-04T03:45:18.642Z,3.72
2022-09-04T03:47:56.376Z,2.92
2022-09-04T03:50:36.478Z,2.55
2022-09-04T03:53:16.267Z,3.90
2022-09-04T03:56:21.713Z,2.80
2022-09-04T03:59:00.305Z,2.33
2022-09-04T04:01:38.111Z,3.05
2022-09-04T04:04:44.093Z,2.53
2022-09-04T04:07:35.501Z,2.35
2022-09-04T04:10:16.669Z,2.65
2022-09-04T04:13:12.359Z,2.60
2022-09-04T04:15:55.857Z,3.05
2022-09-04T04:18:42.967Z,2.83
2022-09-04T04:21:18.734Z,2.80
2022-09-04T04:24:02.139Z,2.28
2022-09-04T04:26:40.794Z,3.08
2022-09-04T04:29:26.806Z,2.60
2022-09-04T04:32:14.591Z,2.42
2022-09-04T04:34:58.998Z,2.10
2022-09-04T04:37:37.337Z,2.20
2022-09-04T04:40:16.461Z,2.90
2022-09-04T04:42:53.375Z,2.40
2022-09-04T04:45:47.113Z,4.53
2022-09-04T04:48:51.730Z,3.35
2022-09-04T04:51:40.525Z,4.35
2022-09-04T04:54:27.417Z,3.15
2022-09-04T04:57:02.125Z,10.88
2022-09-04T04:59:40.401Z,3.33
2022-09-04T05:02:19.160Z,2.40
2022-09-04T05:04:58.078Z,2.83
2022-09-04T05:07:34.665Z,3.33
2022-09-04T05:10:11.899Z,3.05
2022-09-04T05:12:57.113Z,4.95
2022-09-04T05:15:34.420Z,5.93
2022-09-04T05:18:12.134Z,5.05
2022-09-04T05:20:45.325Z,3.50
2022-09-04T05:23:28.530Z,3.10
2022-09-04T05:26:09.113Z,3.33
2022-09-04T05:28:50.005Z,3.90
2022-09-04T05:31:27.930Z,3.00
2022-09-04T05:34:03.441Z,5.10
2022-09-04T05:36:43.964Z,4.93
2022-09-04T05:39:19.644Z,4.78
2022-09-04T05:42:06.558Z,3.60
2022-09-04T05:44:55.214Z,7.43
2022-09-04T05:47:34.865Z,4.07
2022-09-04T05:50:27.835Z,3.45
2022-09-04T05:53:28.990Z,4.60
2022-09-04T05:56:13.961Z,3.40
2022-09-04T05:58:58.884Z,3.83
2022-09-04T06:01:52.500Z,6.03
2022-09-04T06:04:41.905Z,11.18
2022-09-04T06:07:18.843Z,4.40
2022-09-04T06:09:59.682Z,4.20
2022-09-04T06:12:42.802Z,4.32
2022-09-04T06:15:28.441Z,4.65
2022-09-04T06:18:12.768Z,4.97
2022-09-04T06:20:55.011Z,5.07
2022-09-04T06:23:56.750Z,5.78
2022-09-04T06:26:41.398Z,7.82
2022-09-04T06:29:49.638Z,7.40
2022-09-04T06:32:54.150Z,7.13
2022-09-04T06:35:34.769Z,5.85
2022-09-04T06:38:20.268Z,5.57
2022-09-04T06:41:03.987Z,6.57
2022-09-04T06:43:42.712Z,6.00
2022-09-04T06:46:22.722Z,8.40
2022-09-04T06:49:02.680Z,7.88
2022-09-04T06:51:45.581Z,8.30
2022-09-04T06:54:21.066Z,12.05
2022-09-04T06:57:08.903Z,8.82
2022-09-04T07:00:03.744Z,9.07
2022-09-04T07:02:50.193Z,10.95
2022-09-04T07:05:25.898Z,10.07
2022-09-04T07:08:04.979Z,9.35
2022-09-04T07:10:36.059Z,10.88
2022-09-04T07:13:24.908Z,9.15
2022-09-04T07:16:32.303Z,11.60
2022-09-04T07:19:38.547Z,13.65
2022-09-04T07:22:29.849Z,11.27
2022-09-04T07:25:12.350Z,11.68
2022-09-04T07:27:55.855Z,12.52
2022-09-04T07:30:26.106Z,12.00
2022-09-04T07:32:58.648Z,10.93
2022-09-04T07:35:36.326Z,11.52
2022-09-04T07:38:13.220Z,13.35
2022-09-04T07:40:45.929Z,13.35
2022-09-04T07:43:21.432Z,13.85
2022-09-04T07:46:00.432Z,12.20
2022-09-04T07:48:33.808Z,12.75
2022-09-04T07:51:10.496Z,13.65
2022-09-04T07:53:54.898Z,12.25
2022-09-04T07:56:35.991Z,13.30
2022-09-04T07:59:24.254Z,13.80
2022-09-04T08:02:19.034Z,12.75
2022-09-04T08:05:09.050Z,12.00
2022-09-04T08:08:16.645Z,10.63
2022-09-04T08:11:00.782Z,13.65
2022-09-04T08:13:43.128Z,11.35
2022-09-04T08:16:19.248Z,11.43
2022-09-04T08:19:12.038Z,11.15
2022-09-04T08:21:47.792Z,11.02
2022-09-04T08:24:41.271Z,9.73
2022-09-04T08:27:23.198Z,11.93
2022-09-04T08:30:08.597Z,14.75
2022-09-04T08:33:11.948Z,9.45
2022-09-04T08:35:51.019Z,9.43
2022-09-04T08:38:39.698Z,9.20
2022-09-04T08:41:55.049Z,13.43
2022-09-04T08:44:50.018Z,9.65
2022-09-04T08:47:54.776Z,6.65
2022-09-04T08:50:40.672Z,4.95
2022-09-04T08:53:42.060Z,4.13
2022-09-04T08:56:22.141Z,5.45
2022-09-04T08:59:28.321Z,4.32
2022-09-04T09:02:39.350Z,4.15
2022-09-04T09:05:55.726Z,5.75
2022-09-04T09:09:21.461Z,5.45
2022-09-04T09:12:21.610Z,5.85
2022-09-04T09:15:28.081Z,4.97
2022-09-04T09:18:04.227Z,7.60
2022-09-04T09:20:45.924Z,5.35
2022-09-04T09:23:39.006Z,4.00
2022-09-04T09:26:26.550Z,4.38
2022-09-04T09:29:25.143Z,6.88
2022-09-04T09:32:35.570Z,4.95
2022-09-04T09:35:34.514Z,3.95
2022-09-04T09:38:39.021Z,3.08
2022-09-04T09:41:28.501Z,3.80
2022-09-04T09:44:31.502Z,3.03
2022-09-04T09:47:32.342Z,2.70
2022-09-04T09:50:45.438Z,4.57
2022-09-04T09:54:01.257Z,2.67
2022-09-04T09:57:13.111Z,3.45
2022-09-04T10:00:09.502Z,2.20
2022-09-04T10:03:07.815Z,3.70
2022-09-04T10:06:09.702Z,4.32
2022-09-04T10:09:09.150Z,4.63
2022-09-04T10:12:19.968Z,2.78
2022-09-04T10:15:07.323Z,2.15
2022-09-04T10:18:15.534Z,9.75
2022-09-04T10:21:20.819Z,5.10
2022-09-04T10:24:22.696Z,2.58
2022-09-04T10:27:26.821Z,2.97
2022-09-04T10:30:06.045Z,3.17
2022-09-04T10:33:14.455Z,3.05
2022-09-04T10:36:04.327Z,3.08
2022-09-04T10:39:08.192Z,2.42
2022-09-04T10:42:06.254Z,1.83
2022-09-04T10:45:02.549Z,2.20
2022-09-04T10:47:58.758Z,3.60
2022-09-04T10:50:37.357Z,2.55
2022-09-04T10:53:35.482Z,1.92
2022-09-04T10:56:16.244Z,1.73
2022-09-04T10:59:16.246Z,1.40
2022-09-04T11:02:14.037Z,1.58
2022-09-04T11:05:08.289Z,2.08
2022-09-04T11:08:04.009Z,1.70
2022-09-04T11:10:53.101Z,1.73
2022-09-04T11:13:57.745Z,1.45
2022-09-04T11:16:50.727Z,1.83
2022-09-04T11:19:57.741Z,2.47
2022-09-04T11:22:58.527Z,3.75
2022-09-04T11:26:15.273Z,1.50
2022-09-04T11:29:04.355Z,2.33
2022-09-04T11:31:51.146Z,1.45
2022-09-04T11:35:07.136Z,4.07
2022-09-04T11:38:14.650Z,3.20
2022-09-04T11:41:31.333Z,1.42
2022-09-04T11:44:35.885Z,2.85
2022-09-04T11:47:48.636Z,2.38
2022-09-04T11:50:31.517Z,1.50
2022-09-04T11:53:32.603Z,1.55
2022-09-04T11:56:21.605Z,1.20
2022-09-04T11:59:17.064Z,2.22
2022-09-04T12:02:22.199Z,1.27
2022-09-04T12:05:09.607Z,1.92
2022-09-04T12:08:06.102Z,2.15
2022-09-04T12:11:04.368Z,2.25
2022-09-04T12:13:59.373Z,1.85
2022-09-04T12:16:50.962Z,1.30
2022-09-04T12:19:45.701Z,2.47
2022-09-04T12:22:58.003Z,1.92
2022-09-04T12:26:11.532Z,3.58
2022-09-04T12:29:12.705Z,2.92
2022-09-04T12:32:07.099Z,1.67
2022-09-04T12:34:54.454Z,2.65
2022-09-04T12:38:07.415Z,1.35
2022-09-04T12:40:45.335Z,1.52
2022-09-04T12:43:22.220Z,1.77
2022-09-04T12:46:05.861Z,1.55
2022-09-04T12:48:42.664Z,1.40
2022-09-04T12:51:14.431Z,1.73
2022-09-04T12:54:23.676Z,1.52
2022-09-04T12:57:08.171Z,2.80
2022-09-04T12:59:46.513Z,1.23
2022-09-04T13:02:28.784Z,1.85
2022-09-04T13:05:06.285Z,1.85
2022-09-04T13:07:52.237Z,1.80
2022-09-04T13:10:32.925Z,1.10
2022-09-04T13:13:15.722Z,1.30
2022-09-04T13:15:58.185Z,1.40
2022-09-04T13:18:46.690Z,2.17
2022-09-04T13:21:26.860Z,1.10
2022-09-04T13:24:12.807Z,1.45
2022-09-04T13:26:55.640Z,1.77
2022-09-04T13:29:40.251Z,0.82
2022-09-04T13:32:28.938Z,1.10
2022-09-04T13:35:15.944Z,1.50
2022-09-04T13:38:07.887Z,1.40
2022-09-04T13:41:00.155Z,1.25
2022-09-04T13:44:01.585Z,2.25
2022-09-04T13:46:34.545Z,2.85
2022-09-04T13:49:08.651Z,2.33
2022-09-04T13:51:44.774Z,1.67
2022-09-04T13:54:17.964Z,1.10
2022-09-04T13:56:53.889Z,1.70
2022-09-04T13:59:24.531Z,2.55
2022-09-04T14:01:58.330Z,2.75
2022-09-04T14:04:33.507Z,2.03
2022-09-04T14:07:11.717Z,1.30
2022-09-04T14:09:45.243Z,1.52
2022-09-04T14:12:38.625Z,1.30
2022-09-04T14:15:28.663Z,1.77
2022-09-04T14:18:16.500Z,1.45
2022-09-04T14:20:58.063Z,1.55
2022-09-04T14:23:42.345Z,1.45
2022-09-04T14:26:21.516Z,1.02
2022-09-04T14:28:57.330Z,2.60
2022-09-04T14:31:35.232Z,1.55
2022-09-04T14:34:16.060Z,1.35
2022-09-04T14:36:55.198Z,1.48
2022-09-04T14:39:29.116Z,1.33
2022-09-04T14:42:29.349Z,1.25
2022-09-04T14:45:23.369Z,1.08
2022-09-04T14:47:55.852Z,1.60
2022-09-04T14:50:30.380Z,1.98
2022-09-04T14:53:03.624Z,1.27
2022-09-04T14:55:35.470Z,1.20
2022-09-04T14:58:10.471Z,1.23
2022-09-04T15:01:00.294Z,1.42
2022-09-04T15:03:35.153Z,1.67
2022-09-04T15:06:16.198Z,2.55
2022-09-04T15:08:46.430Z,2.25
2022-09-04T15:11:31.599Z,1.83
2022-09-04T15:14:06.066Z,2.25
2022-09-04T15:16:50.625Z,2.55
2022-09-04T15:19:33.210Z,1.30
2022-09-04T15:22:07.622Z,1.55
2022-09-04T15:24:39.573Z,1.98
2022-09-04T15:27:19.898Z,3.17
2022-09-04T15:30:02.258Z,1.40
2022-09-04T15:32:36.670Z,2.03
2022-09-04T15:35:15.553Z,2.80
2022-09-04T15:37:48.358Z,3.47
2022-09-04T15:40:29.104Z,1.80
2022-09-04T15:43:12.330Z,2.17
2022-09-04T15:45:47.969Z,1.65
2022-09-04T15:48:24.158Z,1.52
2022-09-04T15:51:03.822Z,1.77
2022-09-04T15:53:35.878Z,1.60
2022-09-04T15:56:09.588Z,2.10
2022-09-04T15:58:55.382Z,3.47
2022-09-04T16:01:28.058Z,4.32
2022-09-04T16:04:07.258Z,3.05
2022-09-04T16:06:44.966Z,3.10
2022-09-04T16:09:23.989Z,2.20
2022-09-04T16:12:01.568Z,1.58
2022-09-04T16:14:38.426Z,1.40
2022-09-04T16:17:20.155Z,3.05
2022-09-04T16:19:57.727Z,2.63
2022-09-04T16:22:36.372Z,1.40
2022-09-04T16:25:10.195Z,1.77
2022-09-04T16:27:48.146Z,3.17
2022-09-04T16:30:33.010Z,1.58
2022-09-04T16:33:03.029Z,4.88
2022-09-04T16:35:36.267Z,2.97
2022-09-04T16:38:10.336Z,3.05
2022-09-04T16:40:43.986Z,3.83
2022-09-04T16:43:21.892Z,3.42
2022-09-04T16:46:06.397Z,2.88
2022-09-04T16:48:43.909Z,1.83
2022-09-04T16:51:39.449Z,1.40
2022-09-04T16:54:18.047Z,2.53
2022-09-04T16:56:50.800Z,1.52
2022-09-04T16:59:27.782Z,1.67
2022-09-04T17:02:02.475Z,2.05
2022-09-04T17:04:44.787Z,3.60
2022-09-04T17:07:19.114Z,3.47
2022-09-04T17:09:56.890Z,1.92
2022-09-04T17:12:38.685Z,2.35
2022-09-04T17:15:17.473Z,3.17
2022-09-04T17:17:47.795Z,3.58
2022-09-04T17:20:40.160Z,2.60
2022-09-04T17:29:03.037Z,2.55
2022-09-04T17:29:11.307Z,2.88
2022-09-04T17:29:34.507Z,1.92
2022-09-04T17:32:11.830Z,2.00
2022-09-04T17:40:48.267Z,4.30
2022-09-04T17:40:48.978Z,2.50
2022-09-04T17:41:37.963Z,2.47
2022-09-04T17:44:19.672Z,2.75
2022-09-04T17:47:03.813Z,2.70
2022-09-04T17:49:35.142Z,2.47
2022-09-04T17:52:09.087Z,3.47
2022-09-04T17:54:42.125Z,3.33
2022-09-04T17:57:26.045Z,3.40
2022-09-04T18:00:01.451Z,3.53
2022-09-04T18:02:39.758Z,2.92
2022-09-04T18:05:19.398Z,2.80
2022-09-04T18:08:09.945Z,3.35
2022-09-04T18:10:53.484Z,1.92
2022-09-04T18:13:38.099Z,3.08
2022-09-04T18:16:40.603Z,2.20
2022-09-04T18:19:20.267Z,2.40
2022-09-04T18:22:15.728Z,2.72
2022-09-04T18:24:50.751Z,1.80
2022-09-04T18:27:23.081Z,3.42
2022-09-04T18:34:29.616Z,3.30
2022-09-04T18:37:12.024Z,4.47
2022-09-04T18:37:25.658Z,2.20
2022-09-04T18:39:09.158Z,4.07
2022-09-04T18:49:15.989Z,2.25
2022-09-04T18:50:31.930Z,3.42
2022-09-04T18:50:33.640Z,2.42
2022-09-04T18:53:45.190Z,2.40
2022-09-04T18:56:20.892Z,2.50
2022-09-04T18:59:05.375Z,3.33
2022-09-04T19:01:43.943Z,3.47
2022-09-04T19:04:44.630Z,3.08
2022-09-04T19:07:23.134Z,3.58
2022-09-04T19:10:04.408Z,2.75
2022-09-04T19:12:47.077Z,3.35
2022-09-04T19:15:45.559Z,5.03
2022-09-04T19:18:27.471Z,3.25
2022-09-04T19:21:14.672Z,3.10
2022-09-04T19:23:50.278Z,2.30
2022-09-04T19:26:27.753Z,3.00
2022-09-04T19:29:00.692Z,4.68
2022-09-04T19:31:37.368Z,3.40
2022-09-04T19:34:15.197Z,3.95
2022-09-04T19:36:50.393Z,3.03
2022-09-04T19:45:55.852Z,2.40
2022-09-04T19:46:06.471Z,4.22
2022-09-04T19:46:17.658Z,2.67
2022-09-04T19:48:32.087Z,3.13
2022-09-04T19:53:34.524Z,2.92
2022-09-04T19:54:10.145Z,2.97
2022-09-04T19:57:33.013Z,4.63
2022-09-04T19:59:43.400Z,2.95
2022-09-04T20:02:23.288Z,2.95
2022-09-04T20:04:58.964Z,5.28
2022-09-04T20:07:41.112Z,3.67
2022-09-04T20:10:20.005Z,5.30
2022-09-04T20:12:53.837Z,4.63
2022-09-04T20:15:31.877Z,4.85
2022-09-04T20:18:10.008Z,4.63
2022-09-04T20:20:49.796Z,3.40
2022-09-04T20:23:43.845Z,4.43
2022-09-04T20:26:20.279Z,7.03
2022-09-04T20:28:59.559Z,4.65
2022-09-04T20:31:40.078Z,2.58
2022-09-04T20:34:27.910Z,3.33
2022-09-04T20:37:15.888Z,2.90
2022-09-04T20:39:53.132Z,3.42
2022-09-04T20:42:28.457Z,4.22
2022-09-04T20:46:26.391Z,4.47
2022-09-04T20:52:42.762Z,4.13
2022-09-04T20:52:48.680Z,5.53
2022-09-04T20:53:55.468Z,5.10
2022-09-04T20:58:02.736Z,5.18
2022-09-04T21:03:08.299Z,4.07
2022-09-04T21:03:13.968Z,4.40
2022-09-04T21:05:41.461Z,4.38
2022-09-04T21:08:19.668Z,3.72
2022-09-04T21:10:56.608Z,3.60
2022-09-04T21:13:31.088Z,5.82
2022-09-04T21:16:12.832Z,3.85
2022-09-04T21:19:27.969Z,4.15
2022-09-04T21:22:15.412Z,4.25
2022-09-04T21:25:09.767Z,5.57
2022-09-04T21:28:02.009Z,3.70
2022-09-04T21:30:50.401Z,5.82
2022-09-04T21:33:36.765Z,4.90
2022-09-04T21:36:26.896Z,3.97
2022-09-04T21:39:26.644Z,4.85
2022-09-04T21:42:11.432Z,4.15
2022-09-04T21:45:18.174Z,5.13
2022-09-04T21:48:23.254Z,4.50
2022-09-04T21:51:21.299Z,4.13
2022-09-04T21:54:37.552Z,4.95
2022-09-04T22:02:28.499Z,3.67
2022-09-04T22:02:37.303Z,9.05
2022-09-04T22:03:29.648Z,4.60
2022-09-04T22:06:10.428Z,4.28
2022-09-04T22:13:33.829Z,4.43
2022-09-04T22:13:38.743Z,3.58
2022-09-04T22:14:51.689Z,7.70
2022-09-04T22:17:42.520Z,5.95
2022-09-04T22:20:25.068Z,7.68
2022-09-04T22:23:31.358Z,5.97
2022-09-04T22:26:23.783Z,9.32
2022-09-04T22:29:12.531Z,4.97
2022-09-04T22:32:21.961Z,3.97
2022-09-04T22:35:36.061Z,4.53
2022-09-04T22:38:28.698Z,4.57
2022-09-04T22:41:21.492Z,3.63
2022-09-04T22:44:00.714Z,5.05
2022-09-04T22:46:56.466Z,5.40
2022-09-04T22:49:43.308Z,3.75
2022-09-04T22:52:29.715Z,5.55
2022-09-04T22:55:36.284Z,3.38
2022-09-04T22:58:19.153Z,4.28
2022-09-04T23:01:04.628Z,4.45
2022-09-04T23:03:45.544Z,3.25
2022-09-04T23:10:13.845Z,4.20
2022-09-04T23:13:47.051Z,3.70
2022-09-04T23:14:00.809Z,4.47
2022-09-04T23:15:56.058Z,3.15
2022-09-04T23:22:29.436Z,3.13
2022-09-04T23:26:34.641Z,2.55
2022-09-04T23:26:54.235Z,2.70
2022-09-04T23:28:28.686Z,3.17
2022-09-04T23:31:29.243Z,3.30
2022-09-04T23:34:27.403Z,3.38
2022-09-04T23:37:15.242Z,4.07
2022-09-04T23:40:11.317Z,2.75
2022-09-04T23:43:07.441Z,2.65
2022-09-04T23:46:01.741Z,3.28
2022-09-04T23:49:06.974Z,3.80
2022-09-04T23:51:45.637Z,2.45
2022-09-04T23:54:52.346Z,5.63
2022-09-04T23:57:29.517Z,4.15
